createdAt,value
2022-10-04T00:03:13.768Z,101039.47
2022-10-04T00:08:30.161Z,101036.81
2022-10-04T00:13:48.485Z,101042.84
2022-10-04T00:19:07.862Z,101041.16
2022-10-04T00:24:22.181Z,101044.16
2022-10-04T00:29:35.689Z,101049.31
2022-10-04T00:34:56.892Z,101043.19
2022-10-04T00:40:17.030Z,101047.91
2022-10-04T00:45:38.572Z,101046.34
2022-10-04T00:50:54.932Z,101049.56
2022-10-04T00:56:05.611Z,101043.34
2022-10-04T01:01:14.494Z,101044.31
2022-10-04T01:06:29.032Z,101032.25
2022-10-04T01:11:49.359Z,101039.81
2022-10-04T01:17:02.329Z,101041.63
2022-10-04T01:22:27.171Z,101040.38
2022-10-04T01:28:04.046Z,101042.03
2022-10-04T01:33:23.026Z,101039.53
2022-10-04T01:38:32.536Z,101029.00
2022-10-04T01:43:52.413Z,101029.00
2022-10-04T01:49:16.849Z,101025.69
2022-10-04T01:54:38.639Z,101036.09
2022-10-04T02:00:11.079Z,101024.88
2022-10-04T02:05:40.346Z,101020.03
2022-10-04T02:16:20.351Z,101014.03
2022-10-04T02:21:27.771Z,101012.66
2022-10-04T02:26:37.545Z,101002.25
2022-10-04T02:32:01.271Z,101000.97
2022-10-04T02:37:11.704Z,100995.25
2022-10-04T02:42:30.768Z,100992.66
2022-10-04T02:47:48.169Z,101002.16
2022-10-04T02:53:04.906Z,100990.91
2022-10-04T02:58:24.187Z,100991.53
2022-10-04T03:03:48.497Z,100991.53
2022-10-04T03:08:58.614Z,100994.03
2022-10-04T03:14:21.582Z,100988.59
2022-10-04T03:19:46.904Z,100986.25
2022-10-04T03:24:59.616Z,100988.59
2022-10-04T03:30:09.021Z,100982.84
2022-10-04T03:41:20.089Z,100986.75
2022-10-04T03:46:36.422Z,100976.97
2022-10-04T03:51:52.331Z,100988.09
2022-10-04T03:57:00.567Z,100979.16
2022-10-04T04:02:19.528Z,100973.31
2022-10-04T04:07:39.066Z,100964.56
2022-10-04T04:12:59.761Z,100973.38
2022-10-04T04:18:09.509Z,100980.53
2022-10-04T04:23:33.684Z,100984.94
2022-10-04T04:28:53.409Z,100976.59
2022-10-04T04:34:06.141Z,100979.59
2022-10-04T04:39:57.392Z,100978.28
2022-10-04T04:45:12.580Z,100975.31
2022-10-04T04:50:22.753Z,100974.00
2022-10-04T04:56:11.017Z,100972.34
2022-10-04T05:01:36.673Z,100967.34
2022-10-04T05:06:44.488Z,100967.09
2022-10-04T05:11:57.494Z,100971.03
2022-10-04T05:17:10.783Z,100973.28
2022-10-04T05:22:23.743Z,100977.94
2022-10-04T05:27:39.442Z,100958.16
2022-10-04T05:32:55.933Z,100962.91
2022-10-04T05:38:20.363Z,100969.91
2022-10-04T05:43:44.307Z,100970.84
2022-10-04T05:48:57.652Z,100972.00
2022-10-04T05:54:05.171Z,100963.78
2022-10-04T05:59:35.622Z,100975.50
2022-10-04T06:05:01.368Z,100975.06
2022-10-04T06:10:43.729Z,100982.75
2022-10-04T06:16:14.698Z,100978.53
2022-10-04T06:21:41.613Z,100985.50
2022-10-04T06:27:08.174Z,100988.91
2022-10-04T06:32:42.427Z,100985.63
2022-10-04T06:38:34.002Z,100980.59
2022-10-04T06:44:00.695Z,101003.13
2022-10-04T06:49:34.132Z,101004.84
2022-10-04T06:55:20.915Z,101003.50
2022-10-04T07:00:38.756Z,101013.69
2022-10-04T07:05:51.614Z,101015.31
2022-10-04T07:11:06.525Z,101007.34
2022-10-04T07:16:36.148Z,101006.03
2022-10-04T07:22:10.385Z,101007.59
2022-10-04T07:27:26.822Z,101008.47
2022-10-04T07:32:38.511Z,101024.16
2022-10-04T07:37:55.617Z,101013.38
2022-10-04T07:43:09.680Z,101016.81
2022-10-04T07:48:26.289Z,101025.44
2022-10-04T07:53:46.239Z,101017.53
2022-10-04T07:59:05.951Z,101028.53
2022-10-04T08:04:44.737Z,101029.19
2022-10-04T08:10:09.925Z,101033.75
2022-10-04T08:15:45.134Z,101029.25
2022-10-04T08:20:58.731Z,101027.28
2022-10-04T08:26:20.252Z,101028.75
2022-10-04T08:31:37.599Z,101037.16
2022-10-04T08:37:00.268Z,101027.53
2022-10-04T08:42:59.062Z,101036.38
2022-10-04T08:48:35.410Z,101035.09
2022-10-04T08:54:22.302Z,101035.94
2022-10-04T09:00:26.325Z,101034.28
2022-10-04T09:06:05.990Z,101037.06
2022-10-04T09:12:01.776Z,101035.41
2022-10-04T09:17:25.559Z,101032.34
2022-10-04T09:22:50.486Z,101045.47
2022-10-04T09:34:27.381Z,101041.66
2022-10-04T09:39:55.786Z,101044.16
2022-10-04T09:45:35.625Z,101039.13
2022-10-04T09:51:12.353Z,101037.22
2022-10-04T09:57:13.530Z,101038.88
2022-10-04T10:03:00.559Z,101032.16
2022-10-04T10:08:26.079Z,101032.81
2022-10-04T10:14:14.759Z,101031.25
2022-10-04T10:19:45.189Z,101022.34
2022-10-04T10:25:16.530Z,101026.38
2022-10-04T10:30:54.803Z,101028.53
2022-10-04T10:36:27.419Z,101014.50
2022-10-04T10:41:53.459Z,101013.03
2022-10-04T10:47:22.479Z,101015.72
2022-10-04T10:53:27.143Z,101008.78
2022-10-04T10:59:29.205Z,101015.25
2022-10-04T11:04:55.450Z,101020.94
2022-10-04T11:10:36.269Z,101003.25
2022-10-04T11:16:21.026Z,101001.72
2022-10-04T11:22:10.839Z,100998.25
2022-10-04T11:27:35.465Z,100990.97
2022-10-04T11:33:23.920Z,100992.66
2022-10-04T11:39:17.265Z,100992.78
2022-10-04T11:45:03.270Z,100986.06
2022-10-04T11:50:39.390Z,100974.28
2022-10-04T11:56:18.182Z,100974.59
2022-10-04T12:02:01.543Z,100970.28
2022-10-04T12:07:34.223Z,100965.97
2022-10-04T12:19:21.221Z,100942.75
2022-10-04T12:25:12.125Z,100947.88
2022-10-04T12:30:37.205Z,100942.06
2022-10-04T12:35:58.380Z,100951.81
2022-10-04T12:41:17.663Z,100941.88
2022-10-04T12:46:39.702Z,100938.41
2022-10-04T12:52:00.901Z,100940.09
2022-10-04T12:57:24.526Z,100924.34
2022-10-04T13:03:02.754Z,100925.22
2022-10-04T13:08:25.527Z,100931.16
2022-10-04T13:19:34.585Z,100923.03
2022-10-04T13:24:59.481Z,100924.84
2022-10-04T13:30:14.060Z,100909.28
2022-10-04T13:35:27.179Z,100911.63
2022-10-04T13:40:44.376Z,100914.13
2022-10-04T13:46:18.974Z,100918.91
2022-10-04T13:51:42.871Z,100913.28
2022-10-04T13:57:11.353Z,100896.72
2022-10-04T14:03:24.327Z,100891.78
2022-10-04T14:09:09.725Z,100888.41
2022-10-04T14:14:49.987Z,100881.13
2022-10-04T14:20:15.743Z,100887.25
2022-10-04T14:25:49.305Z,100874.50
2022-10-04T14:31:22.440Z,100851.16
2022-10-04T14:37:02.888Z,100838.91
2022-10-04T14:42:44.906Z,100843.22
2022-10-04T14:48:37.897Z,100828.97
2022-10-04T14:54:19.493Z,100835.44
2022-10-04T14:59:56.762Z,100828.81
2022-10-04T15:05:49.785Z,100828.31
2022-10-04T15:11:11.940Z,100813.44
2022-10-04T15:16:42.875Z,100810.13
2022-10-04T15:22:17.679Z,100806.78
2022-10-04T15:27:52.571Z,100810.41
2022-10-04T15:33:47.538Z,100810.75
2022-10-04T15:39:03.326Z,100808.78
2022-10-04T15:44:35.024Z,100812.41
2022-10-04T15:50:07.765Z,100812.06
2022-10-04T15:55:25.728Z,100817.03
2022-10-04T16:06:51.544Z,100799.78
2022-10-04T16:12:28.952Z,100810.88
2022-10-04T16:17:50.007Z,100811.69
2022-10-04T16:23:34.253Z,100803.56
2022-10-04T16:29:19.293Z,100800.41
2022-10-04T16:34:52.674Z,100785.66
2022-10-04T16:40:22.083Z,100794.22
2022-10-04T16:45:50.825Z,100795.34
2022-10-04T16:51:42.384Z,100802.25
2022-10-04T16:57:14.545Z,100799.22
2022-10-04T17:02:38.116Z,100810.91
2022-10-04T17:08:05.601Z,100817.75
2022-10-04T17:13:37.603Z,100823.66
2022-10-04T17:18:59.343Z,100831.69
2022-10-04T17:24:35.495Z,100834.44
2022-10-04T17:30:02.938Z,100839.78
2022-10-04T17:35:55.918Z,100821.56
2022-10-04T17:41:18.474Z,100829.03
2022-10-04T17:46:36.867Z,100829.97
2022-10-04T17:52:05.454Z,100823.06
2022-10-04T17:57:25.000Z,100818.69
2022-10-04T18:03:19.010Z,100814.16
2022-10-04T18:08:50.160Z,100829.88
2022-10-04T18:14:07.020Z,100820.38
2022-10-04T18:20:26.482Z,100810.59
2022-10-04T18:25:36.576Z,100800.94
2022-10-04T18:31:01.421Z,100802.34
2022-10-04T18:36:23.444Z,100801.44
2022-10-04T18:41:51.278Z,100814.25
2022-10-04T18:47:02.764Z,100822.72
2022-10-04T18:52:29.391Z,100818.03
2022-10-04T18:58:00.535Z,100828.50
2022-10-04T19:03:37.476Z,100830.03
2022-10-04T19:09:10.609Z,100840.47
2022-10-04T19:14:47.307Z,100848.38
2022-10-04T19:20:11.421Z,100850.75
2022-10-04T19:26:30.471Z,100849.66
2022-10-04T19:31:38.436Z,100858.41
2022-10-04T19:37:01.171Z,100850.25
2022-10-04T19:42:09.788Z,100860.78
2022-10-04T19:47:38.423Z,100870.75
2022-10-04T19:58:38.702Z,100880.75
2022-10-04T20:04:12.046Z,100880.63
2022-10-04T20:09:57.956Z,100892.25
2022-10-04T20:15:54.434Z,100885.03
2022-10-04T20:21:32.984Z,100883.25
2022-10-04T20:27:11.865Z,100876.72
2022-10-04T20:33:29.745Z,100871.19
2022-10-04T20:39:04.824Z,100886.94
2022-10-04T20:44:14.758Z,100878.03
2022-10-04T20:49:20.452Z,100893.41
2022-10-04T20:54:33.837Z,100891.16
2022-10-04T20:59:53.145Z,100890.47
2022-10-04T21:05:17.472Z,100884.38
2022-10-04T21:10:25.662Z,100876.34
2022-10-04T21:15:44.058Z,100877.44
2022-10-04T21:21:07.470Z,100880.72
2022-10-04T21:26:29.097Z,100881.84
2022-10-04T21:31:55.781Z,100890.81
2022-10-04T21:37:30.693Z,100890.81
2022-10-04T21:42:41.843Z,100892.88
2022-10-04T21:47:49.558Z,100882.50
2022-10-04T21:53:03.677Z,100867.97
2022-10-04T21:58:17.274Z,100844.56
2022-10-04T22:03:32.132Z,100836.97
2022-10-04T22:08:41.209Z,100841.41
2022-10-04T22:13:50.742Z,100825.47
2022-10-04T22:19:01.528Z,100818.72
2022-10-04T22:24:18.580Z,100820.63
2022-10-04T22:29:55.031Z,100807.47
2022-10-04T22:35:23.410Z,100800.56
2022-10-04T22:40:33.127Z,100790.47
2022-10-04T22:45:43.163Z,100786.44
2022-10-04T22:51:13.690Z,100769.56
2022-10-04T22:56:38.854Z,100766.78
2022-10-04T23:01:48.018Z,100772.56
2022-10-04T23:07:02.482Z,100767.44
2022-10-04T23:12:29.081Z,100755.28
2022-10-04T23:17:43.012Z,100760.78
2022-10-04T23:23:14.673Z,100762.72
2022-10-04T23:28:39.830Z,100757.59
2022-10-04T23:34:18.030Z,100748.19
2022-10-04T23:39:36.603Z,100739.63
2022-10-04T23:44:43.185Z,100735.47
2022-10-04T23:49:55.618Z,100739.06
2022-10-04T23:55:23.917Z,100737.97
